全部
Smalandsstenar Airport (Smalandsstenar) ESMY 天气
There is no TAF data available at ESMY. Showing TAF data for ESMV (27 mi E).
ESMV终端机场天气预报(ESMY无数据)
| Date | Time (CEST) | Flight Rules | Wind Dir. | Speed | Type | Height AGL (ft) | Visibility | Remarks | ||||||
|---|---|---|---|---|---|---|---|---|---|---|---|---|---|---|
There is no METAR data available at ESMY. Showing METAR data for ESMV (27 mi E).
ESMV近期METAR历史数据(ESMY无数据)
| Date | Time (CEST) | Flight Rules | Wind Dir. | Speed | Type | Height AGL (ft) | Visibility | Temp (°C) | Temp (°F) | Dew Point (°C) | Dew Point (°F) | Rel. Humid. | Pressure | Density Altitude | Remarks |
|---|---|---|---|---|---|---|---|---|---|---|---|---|---|---|---|
| 02-五月 | 17:50 | VFR | 240° | 13 kt | 10000 meters | 22° | 71° | 0° | 32° | 23% | 1012 mb | 1,432 ft | |||
| 02-五月 | 17:20 | VFR | 230° | 15 kt | 10000 meters | 22° | 71° | 1° | 33° | 25% | 1012 mb | 1,432 ft | |||
| 02-五月 | 16:50 | VFR | 230° | 12 kt | 10000 meters | 22° | 71° | 3° | 37° | 29% | 1013 mb | 1,402 ft | |||
| 02-五月 | 16:20 | VFR | 230° | 16 kt | 10000 meters | 23° | 73° | 2° | 35° | 25% | 1013 mb | 1,522 ft | |||
| 02-五月 | 15:50 | VFR | 250° | 12 kt | 10000 meters | 23° | 73° | 2° | 35° | 25% | 1013 mb | 1,522 ft | |||
| 02-五月 | 15:20 | VFR | 220° | 14 kt | 10000 meters | 23° | 73° | 3° | 37° | 27% | 1013 mb | 1,522 ft | |||
| 02-五月 | 14:50 | VFR | 220° | 15 kt | 10000 meters | 23° | 73° | 3° | 37° | 27% | 1014 mb | 1,493 ft | |||
| 02-五月 | 14:20 | VFR | 220° | 15 kt | 10000 meters | 23° | 73° | 3° | 37° | 27% | 1014 mb | 1,493 ft | |||
| 02-五月 | 13:50 | VFR | 220° | 13 kt | 10000 meters | 23° | 73° | 4° | 39° | 29% | 1015 mb | 1,463 ft | |||
| 02-五月 | 13:20 | VFR | 220° | 15 kt | 10000 meters | 23° | 73° | 4° | 39° | 29% | 1015 mb | 1,463 ft | |||
| 02-五月 | 12:50 | VFR | 220° | 15 kt | 10000 meters | 22° | 71° | 4° | 39° | 31% | 1015 mb | 1,343 ft | Wind gusting to 25 KT | ||
| 02-五月 | 12:20 | VFR | 210° | 12 kt | 10000 meters | 21° | 69° | 5° | 41° | 35% | 1016 mb | 1,194 ft | |||
| 02-五月 | 11:50 | VFR | 210° | 12 kt | 10000 meters | 21° | 69° | 4° | 39° | 33% | 1016 mb | 1,194 ft | |||
| 02-五月 | 11:20 | VFR | 210° | 9 kt | 10000 meters | 21° | 69° | 5° | 41° | 35% | 1016 mb | 1,194 ft | |||
| 02-五月 | 10:50 | VFR | 210° | 9 kt | 10000 meters | 20° | 68° | 5° | 41° | 37% | 1017 mb | 1,044 ft | |||
| 02-五月 | 10:20 | VFR | 210° | 8 kt | 10000 meters | 19° | 66° | 5° | 41° | 40% | 1017 mb | 924 ft | |||
| 02-五月 | 09:50 | VFR | 190° | 6 kt | 10000 meters | 17° | 62° | 5° | 41° | 45% | 1017 mb | 684 ft | |||
| 02-五月 | 09:20 | VFR | 210° | 6 kt | 10000 meters | 16° | 60° | 5° | 41° | 48% | 1018 mb | 534 ft | |||
| 02-五月 | 08:50 | VFR | 200° | 6 kt | 10000 meters | 14° | 57° | 4° | 39° | 51% | 1018 mb | 294 ft | |||
| 02-五月 | 08:20 | VFR | 190° | 5 kt | 10000 meters | 13° | 55° | 4° | 39° | 54% | 1018 mb | 174 ft | |||
| 02-五月 | 07:50 | VFR | 190° | 4 kt | 10000 meters | 11° | 51° | 4° | 39° | 62% | 1019 mb | -95 ft | |||
| 02-五月 | 07:20 | VFR | 180° | 3 kt | 10000 meters | 9° | 48° | 4° | 39° | 71% | 1019 mb | -335 ft | |||
| 02-五月 | 06:50 | VFR | Variable | 2 kt | 10000 meters | 6° | 42° | 4° | 39° | 87% | 1019 mb | -695 ft | |||
| 02-五月 | 06:20 | VFR | Variable | 1 kt | 10000 meters | 2° | 35° | -1° | 30° | 80% | 1019 mb | -1,175 ft |
登录
| 您的浏览器不支持. 升级您的浏览器 |
